Time;durP1;ratioP1;P1;durP2;ratioP2;P2;SDS_P1;SDS_P2;PMS_P1;PMS_P2;Temp;Humidity;BMP_temperature;BMP_pressure;BME280_temperature;BME280_humidity;BME280_pressure;Samples;Min_cycle;Max_cycle;Signal;HPM_P1;HPM_P2
2024/01/22 00:00:39;;;;;;;0.00;0.00;;;-2.00;99.90;;;;;;4999960;28;20523;-64
2024/01/22 00:03:05;;;;;;;0.03;0.03;;;-2.00;99.90;;;;;;5000219;28;20508;-64
2024/01/22 00:05:30;;;;;;;0.07;0.07;;;-2.00;99.90;;;;;;5003338;28;20026;-65
2024/01/22 00:07:56;;;;;;;0.73;0.73;;;-2.00;99.90;;;;;;5002864;28;20025;-64
2024/01/22 00:10:22;;;;;;;0.00;0.00;;;-2.00;99.90;;;;;;4998858;28;20492;-64
2024/01/22 00:12:47;;;;;;;0.00;0.00;;;-2.10;99.90;;;;;;5005274;28;20088;-64
2024/01/22 00:15:13;;;;;;;0.00;0.00;;;-2.10;99.90;;;;;;5001424;28;20411;-65
2024/01/22 00:17:39;;;;;;;0.00;0.00;;;-2.10;99.90;;;;;;5013808;28;20025;-64
2024/01/22 00:20:05;;;;;;;0.00;0.00;;;-2.10;99.90;;;;;;4999122;28;20034;-64
2024/01/22 00:22:30;;;;;;;0.20;0.20;;;-2.10;99.90;;;;;;4996059;28;20721;-64
2024/01/22 00:24:56;;;;;;;0.27;0.27;;;-2.20;99.90;;;;;;5035475;28;20033;-64
2024/01/22 00:27:22;;;;;;;0.00;0.00;;;-2.20;99.90;;;;;;5000358;28;20395;-64
2024/01/22 00:29:47;;;;;;;0.27;0.27;;;-2.20;99.90;;;;;;5003950;28;20037;-65
2024/01/22 00:32:13;;;;;;;0.10;0.10;;;-2.20;99.90;;;;;;4999671;28;20018;-64
2024/01/22 00:34:38;;;;;;;0.00;0.00;;;-2.20;99.90;;;;;;5000369;28;20105;-64
2024/01/22 00:37:04;;;;;;;0.13;0.13;;;-2.20;99.90;;;;;;5000803;28;20041;-65
2024/01/22 00:39:30;;;;;;;0.00;0.00;;;-2.20;99.90;;;;;;4998086;28;20030;-65
2024/01/22 00:41:56;;;;;;;0.10;0.10;;;-2.20;99.90;;;;;;5002781;28;20026;-65
2024/01/22 00:44:23;;;;;;;0.00;0.00;;;-2.10;99.90;;;;;;4999192;28;20117;-64
2024/01/22 00:46:49;;;;;;;0.00;0.00;;;-2.10;99.90;;;;;;5020252;28;20022;-66
2024/01/22 00:49:15;;;;;;;0.00;0.00;;;-2.10;99.90;;;;;;5006616;28;20112;-65
2024/01/22 00:51:40;;;;;;;0.00;0.00;;;-2.20;99.90;;;;;;5007422;28;20268;-65
2024/01/22 00:54:06;;;;;;;0.00;0.00;;;-2.20;99.90;;;;;;5003040;28;20879;-64
2024/01/22 00:56:33;;;;;;;0.00;0.00;;;-2.20;99.90;;;;;;5001371;28;20903;-64
2024/01/22 00:58:59;;;;;;;0.00;0.00;;;-2.10;99.90;;;;;;5005674;28;20047;-65
2024/01/22 01:01:24;;;;;;;0.10;0.10;;;-2.20;99.90;;;;;;5015944;28;20034;-64
2024/01/22 01:03:50;;;;;;;0.00;0.00;;;-2.20;99.90;;;;;;5000389;28;20383;-64
2024/01/22 01:06:16;;;;;;;0.03;0.03;;;-2.20;99.90;;;;;;5007608;28;20077;-64
2024/01/22 01:08:42;;;;;;;0.00;0.00;;;-2.20;99.90;;;;;;5003982;28;20100;-64
2024/01/22 01:11:07;;;;;;;0.00;0.00;;;-2.20;99.90;;;;;;5007074;28;20153;-64
2024/01/22 01:13:33;;;;;;;0.00;0.00;;;-2.20;99.90;;;;;;5005771;28;20105;-65
2024/01/22 01:15:59;;;;;;;0.00;0.00;;;-2.20;99.90;;;;;;5034719;28;20172;-65
2024/01/22 01:18:24;;;;;;;0.00;0.00;;;-2.20;99.90;;;;;;5009612;28;20045;-64
2024/01/22 01:20:50;;;;;;;0.00;0.00;;;-2.20;99.90;;;;;;5006375;28;20038;-65
2024/01/22 01:23:15;;;;;;;0.00;0.00;;;-2.20;99.90;;;;;;5008086;28;20032;-65
2024/01/22 01:25:41;;;;;;;0.00;0.00;;;-2.20;99.90;;;;;;5008630;28;20029;-64
2024/01/22 01:28:07;;;;;;;0.00;0.00;;;-2.20;99.90;;;;;;5008956;28;20061;-65
2024/01/22 01:30:32;;;;;;;0.17;0.17;;;-2.30;99.90;;;;;;5005039;28;20030;-64
2024/01/22 01:32:58;;;;;;;0.00;0.00;;;-2.30;99.90;;;;;;5005319;28;20030;-64
2024/01/22 01:35:23;;;;;;;0.00;0.00;;;-2.30;99.90;;;;;;5006519;28;20026;-65
2024/01/22 01:37:49;;;;;;;0.00;0.00;;;-2.50;99.90;;;;;;5006598;28;20100;-64
2024/01/22 01:40:15;;;;;;;0.10;0.10;;;-2.50;99.90;;;;;;5002545;28;20385;-65
2024/01/22 01:42:43;;;;;;;0.38;0.38;;;-2.50;99.90;;;;;;5002908;28;20478;-64
2024/01/22 01:45:13;;;;;;;0.00;0.00;;;-2.60;99.90;;;;;;5003503;28;20433;-64
2024/01/22 01:47:45;;;;;;;0.25;0.25;;;-2.60;99.90;;;;;;5004318;28;20018;-65
2024/01/22 01:50:11;;;;;;;0.03;0.03;;;-2.60;99.90;;;;;;5003292;28;20425;-65
2024/01/22 01:52:37;;;;;;;0.00;0.00;;;-2.60;99.90;;;;;;5003983;28;20018;-62
2024/01/22 01:55:03;;;;;;;0.03;0.03;;;-2.60;99.90;;;;;;5004494;28;20121;-61
2024/01/22 01:57:29;;;;;;;0.00;0.00;;;-2.60;99.90;;;;;;5004040;28;20034;-62
2024/01/22 01:59:56;;;;;;;0.00;0.00;;;-2.70;99.90;;;;;;5005334;28;20092;-62
2024/01/22 02:02:21;;;;;;;0.80;0.80;;;-2.70;99.90;;;;;;5001510;28;20108;-62
2024/01/22 02:04:47;;;;;;;0.00;0.00;;;-2.60;99.90;;;;;;5006148;28;20112;-63
2024/01/22 02:07:13;;;;;;;0.00;0.00;;;-2.60;99.90;;;;;;5005950;28;20080;-62
2024/01/22 02:09:49;;;;;;;0.00;0.00;;;-2.60;99.90;;;;;;5004066;28;20156;-63
2024/01/22 02:12:19;;;;;;;0.00;0.00;;;-2.60;99.90;;;;;;5005180;28;20512;-62
2024/01/22 02:14:46;;;;;;;0.00;0.00;;;-2.60;99.90;;;;;;5003278;28;20217;-63
2024/01/22 02:17:12;;;;;;;0.00;0.00;;;-2.60;99.90;;;;;;5001727;28;20093;-62
2024/01/22 02:19:38;;;;;;;0.00;0.00;;;-2.60;99.90;;;;;;4999844;28;20057;-62
2024/01/22 02:22:04;;;;;;;0.00;0.00;;;-2.60;99.90;;;;;;5005228;28;20154;-61
2024/01/22 02:24:30;;;;;;;0.00;0.00;;;-2.60;99.90;;;;;;5003868;28;20030;-61
2024/01/22 02:26:56;;;;;;;0.10;0.10;;;-2.60;99.90;;;;;;5006079;28;20033;-61
2024/01/22 02:29:22;;;;;;;0.00;0.00;;;-2.60;99.90;;;;;;5003359;28;20481;-62
2024/01/22 02:31:49;;;;;;;0.20;0.20;;;-2.70;99.90;;;;;;5004484;28;20109;-61
2024/01/22 02:34:17;;;;;;;;;;;-2.70;99.90;;;;;;5005842;28;20026;-63
2024/01/22 02:36:44;;;;;;;0.00;0.00;;;-2.70;99.90;;;;;;5005087;28;19915;-61
2024/01/22 02:39:11;;;;;;;0.00;0.00;;;-2.80;99.90;;;;;;5001133;28;20041;-62
2024/01/22 02:41:37;;;;;;;0.00;0.00;;;-2.80;99.90;;;;;;5005787;28;20147;-62
2024/01/22 02:44:03;;;;;;;0.00;0.00;;;-2.90;99.90;;;;;;5005144;28;20057;-62
2024/01/22 02:46:29;;;;;;;0.00;0.00;;;-2.90;99.90;;;;;;5004173;28;20171;-62
2024/01/22 02:48:55;;;;;;;0.00;0.00;;;-2.90;99.90;;;;;;5000458;28;20046;-61
2024/01/22 02:51:21;;;;;;;0.03;0.03;;;-3.00;99.90;;;;;;4998821;28;20522;-63
2024/01/22 02:53:47;;;;;;;0.30;0.30;;;-3.00;99.90;;;;;;5000214;28;20512;-63
2024/01/22 02:56:18;;;;;;;0.00;0.00;;;-3.10;99.90;;;;;;4996578;28;20392;-61
2024/01/22 02:58:44;;;;;;;0.00;0.00;;;-3.00;99.90;;;;;;5001820;28;20049;-62
2024/01/22 03:01:09;;;;;;;0.13;0.13;;;-3.10;99.90;;;;;;4995804;28;20782;-63
2024/01/22 03:03:35;;;;;;;0.00;0.00;;;-3.10;99.90;;;;;;5001422;28;20275;-65
2024/01/22 03:06:01;;;;;;;4.60;0.37;;;-3.10;99.90;;;;;;4996270;28;20029;-65
2024/01/22 03:08:26;;;;;;;0.00;0.00;;;-3.10;99.90;;;;;;4997485;28;20026;-64
2024/01/22 03:10:52;;;;;;;0.00;0.00;;;-3.10;99.90;;;;;;4998993;28;20022;-65
2024/01/22 03:13:18;;;;;;;0.00;0.00;;;-3.10;99.90;;;;;;4993301;28;20029;-65
2024/01/22 03:15:43;;;;;;;0.00;0.00;;;-3.10;99.90;;;;;;4999712;28;20022;-65
2024/01/22 03:18:09;;;;;;;0.00;0.00;;;-3.10;99.90;;;;;;4996541;28;20029;-64
2024/01/22 03:20:37;;;;;;;0.00;0.00;;;-3.10;99.90;;;;;;5000355;28;20061;-64
2024/01/22 03:23:04;;;;;;;0.00;0.00;;;-3.20;99.90;;;;;;4999978;28;20568;-64
2024/01/22 03:25:30;;;;;;;0.00;0.00;;;-3.20;99.90;;;;;;4996556;28;20060;-65
2024/01/22 03:27:55;;;;;;;0.00;0.00;;;-3.20;99.90;;;;;;5004823;28;20046;-65
2024/01/22 03:30:21;;;;;;;0.10;0.10;;;-3.20;99.90;;;;;;5001982;28;20272;-65
2024/01/22 03:32:47;;;;;;;0.00;0.00;;;-3.20;99.90;;;;;;5002142;28;20029;-65
2024/01/22 03:35:13;;;;;;;0.00;0.00;;;-3.20;99.90;;;;;;5004227;28;20045;-65
2024/01/22 03:37:40;;;;;;;0.00;0.00;;;-3.20;99.90;;;;;;5000742;28;20036;-65
2024/01/22 03:40:06;;;;;;;0.45;0.45;;;-3.20;99.90;;;;;;5019576;28;20037;-65
2024/01/22 03:42:32;;;;;;;0.00;0.00;;;-3.20;99.90;;;;;;4998533;28;20080;-65
2024/01/22 03:44:58;;;;;;;0.00;0.00;;;-3.20;99.90;;;;;;5000956;28;20033;-65
2024/01/22 03:47:24;;;;;;;0.00;0.00;;;-3.20;99.90;;;;;;5004400;28;20063;-65
2024/01/22 03:49:49;;;;;;;0.00;0.00;;;-3.30;99.90;;;;;;4998009;28;20032;-64
2024/01/22 03:52:15;;;;;;;0.00;0.00;;;-3.30;99.90;;;;;;5004040;28;20533;-65
2024/01/22 03:54:41;;;;;;;0.00;0.00;;;-3.30;99.90;;;;;;5015491;28;20022;-65
2024/01/22 03:57:07;;;;;;;0.00;0.00;;;-3.40;99.90;;;;;;5003642;28;20026;-65
2024/01/22 03:59:37;;;;;;;0.00;0.00;;;-3.30;99.90;;;;;;4999943;28;20490;-65
2024/01/22 04:02:03;;;;;;;2.88;2.67;;;-3.40;99.90;;;;;;4998311;28;20481;-64
2024/01/22 04:04:29;;;;;;;0.00;0.00;;;-3.40;99.90;;;;;;4998045;28;20042;-64
2024/01/22 04:06:55;;;;;;;0.00;0.00;;;-3.40;99.90;;;;;;5002497;28;20505;-65
2024/01/22 04:09:21;;;;;;;0.00;0.00;;;-3.40;99.90;;;;;;5004427;28;20029;-65
2024/01/22 04:11:46;;;;;;;0.00;0.00;;;-3.40;99.90;;;;;;5002007;28;20024;-63
2024/01/22 04:14:12;;;;;;;0.00;0.00;;;-3.40;99.90;;;;;;5002299;28;20026;-62
2024/01/22 04:16:38;;;;;;;0.10;0.10;;;-3.40;99.90;;;;;;5002286;28;20048;-62
2024/01/22 04:19:03;;;;;;;0.00;0.00;;;-3.40;99.90;;;;;;5002149;28;20153;-62
2024/01/22 04:21:30;;;;;;;0.20;0.20;;;-3.40;99.90;;;;;;5007028;28;20041;-62
2024/01/22 04:23:55;;;;;;;0.00;0.00;;;-3.40;99.90;;;;;;5003179;28;20454;-63
2024/01/22 04:26:21;;;;;;;0.00;0.00;;;-3.40;99.90;;;;;;5006491;28;20061;-62
2024/01/22 04:28:46;;;;;;;1.50;0.60;;;-3.30;99.90;;;;;;4998397;28;20110;-63
2024/01/22 04:31:12;;;;;;;0.10;0.10;;;-3.40;99.90;;;;;;5002360;28;20032;-63
2024/01/22 04:33:38;;;;;;;0.00;0.00;;;-3.40;99.90;;;;;;5017757;28;20060;-64
2024/01/22 04:36:04;;;;;;;1.20;0.67;;;-3.40;99.90;;;;;;5000033;28;22195;-62
2024/01/22 04:38:30;;;;;;;0.00;0.00;;;-3.40;99.90;;;;;;5002725;28;20401;-62
2024/01/22 04:40:56;;;;;;;0.00;0.00;;;-3.50;99.90;;;;;;4997960;28;20018;-62
2024/01/22 04:43:23;;;;;;;0.88;0.43;;;-3.40;99.90;;;;;;4997795;28;20022;-62
2024/01/22 04:45:49;;;;;;;0.00;0.00;;;-3.50;99.90;;;;;;5001947;28;20390;-62
2024/01/22 04:48:14;;;;;;;0.00;0.00;;;-3.50;99.90;;;;;;5002574;28;20018;-63
2024/01/22 04:50:40;;;;;;;0.45;0.28;;;-3.50;99.90;;;;;;5014904;28;20018;-61
2024/01/22 04:53:06;;;;;;;0.00;0.00;;;-3.50;99.90;;;;;;5006751;28;20026;-62
2024/01/22 04:55:32;;;;;;;1.92;0.50;;;-3.50;99.90;;;;;;5002318;28;20029;-62
2024/01/22 04:57:58;;;;;;;0.00;0.00;;;-3.60;99.90;;;;;;5006737;28;20048;-63
2024/01/22 05:00:23;;;;;;;0.00;0.00;;;-3.60;99.90;;;;;;5001051;28;20022;-62
2024/01/22 05:02:49;;;;;;;0.00;0.00;;;-3.60;99.90;;;;;;5006205;28;20026;-61
2024/01/22 05:05:15;;;;;;;0.20;0.20;;;-3.60;99.90;;;;;;5006171;28;20026;-63
2024/01/22 05:07:41;;;;;;;0.00;0.00;;;-3.60;99.90;;;;;;5004595;28;20128;-62
2024/01/22 05:10:13;;;;;;;0.13;0.13;;;-3.60;99.90;;;;;;5005055;28;20116;-62
2024/01/22 05:12:39;;;;;;;0.00;0.00;;;-3.60;99.90;;;;;;5004966;28;20688;-63
2024/01/22 05:15:06;;;;;;;0.00;0.00;;;-3.60;99.90;;;;;;5017219;28;20030;-61
2024/01/22 05:17:32;;;;;;;0.00;0.00;;;-3.60;99.90;;;;;;5006271;28;20040;-61
2024/01/22 05:19:58;;;;;;;0.52;0.52;;;-3.60;99.90;;;;;;5006493;28;20017;-61
2024/01/22 05:22:24;;;;;;;0.32;0.32;;;-3.60;99.90;;;;;;5005827;28;20049;-63
2024/01/22 05:24:50;;;;;;;0.00;0.00;;;-3.60;99.90;;;;;;5005196;28;20076;-62
2024/01/22 05:27:16;;;;;;;0.30;0.30;;;-3.60;99.90;;;;;;5004686;28;20018;-61
2024/01/22 05:29:42;;;;;;;0.00;0.00;;;-3.60;99.90;;;;;;5007012;28;20018;-61
2024/01/22 05:32:08;;;;;;;0.00;0.00;;;-3.60;99.90;;;;;;5002097;28;20025;-61
2024/01/22 05:34:34;;;;;;;0.00;0.00;;;-3.50;99.90;;;;;;5002517;28;20029;-63
2024/01/22 05:36:59;;;;;;;3.10;1.03;;;-3.60;99.90;;;;;;5006554;28;20284;-61
2024/01/22 05:39:27;;;;;;;0.00;0.00;;;-3.60;99.90;;;;;;5006082;28;20105;-61
2024/01/22 05:41:56;;;;;;;0.00;0.00;;;-3.60;99.90;;;;;;5001514;28;20014;-63
2024/01/22 05:44:22;;;;;;;0.00;0.00;;;-3.60;99.90;;;;;;4996986;28;20030;-62
2024/01/22 05:46:49;;;;;;;0.00;0.00;;;-3.60;99.90;;;;;;4996552;28;20022;-62
2024/01/22 05:49:15;;;;;;;0.00;0.00;;;-3.70;99.90;;;;;;5001988;28;20381;-63
2024/01/22 05:51:41;;;;;;;0.00;0.00;;;-3.70;99.90;;;;;;5002453;28;20018;-63
2024/01/22 05:54:07;;;;;;;0.00;0.00;;;-3.70;99.90;;;;;;5000034;28;20022;-62
2024/01/22 05:56:32;;;;;;;0.10;0.10;;;-3.70;99.90;;;;;;4997998;28;20026;-61
2024/01/22 05:58:58;;;;;;;0.10;0.10;;;-3.70;99.90;;;;;;5001203;28;20029;-62
2024/01/22 06:01:26;;;;;;;0.00;0.00;;;-3.70;99.90;;;;;;4994823;28;20844;-61
2024/01/22 06:03:52;;;;;;;0.00;0.00;;;-3.70;99.90;;;;;;4995708;28;20413;-62
2024/01/22 06:06:19;;;;;;;0.10;0.10;;;-3.70;99.90;;;;;;5002112;28;20370;-61
2024/01/22 06:08:45;;;;;;;0.08;0.08;;;-3.70;99.90;;;;;;4998917;28;20484;-63
2024/01/22 06:11:12;;;;;;;;;;;-3.70;99.90;;;;;;4997637;28;21121;-62
2024/01/22 06:13:44;;;;;;;0.00;0.00;;;-3.70;99.90;;;;;;4997020;28;20332;-61
2024/01/22 06:16:13;;;;;;;0.00;0.00;;;-3.70;99.90;;;;;;4999596;28;20022;-61
2024/01/22 06:18:41;;;;;;;0.00;0.00;;;-3.70;99.90;;;;;;5000319;28;20462;-63
2024/01/22 06:21:08;;;;;;;0.00;0.00;;;-3.70;99.90;;;;;;5012510;28;20038;-62
2024/01/22 06:23:34;;;;;;;0.00;0.00;;;-3.70;99.90;;;;;;5001747;28;20033;-61
2024/01/22 06:26:01;;;;;;;0.05;0.05;;;-3.70;99.90;;;;;;5001344;28;20042;-60
2024/01/22 06:28:30;;;;;;;0.00;0.00;;;-3.70;99.90;;;;;;5026071;28;20021;-61
2024/01/22 06:30:57;;;;;;;0.00;0.00;;;-3.70;99.90;;;;;;4998900;28;20097;-61
2024/01/22 06:33:23;;;;;;;0.00;0.00;;;-3.60;99.90;;;;;;5000306;28;20037;-64
2024/01/22 06:35:49;;;;;;;0.00;0.00;;;-3.60;99.90;;;;;;4996573;28;20030;-64
2024/01/22 06:38:18;;;;;;;0.00;0.00;;;-3.60;99.90;;;;;;4996884;28;20079;-63
2024/01/22 06:40:44;;;;;;;0.00;0.00;;;-3.50;99.90;;;;;;5009260;28;20034;-63
2024/01/22 06:43:11;;;;;;;0.00;0.00;;;-3.40;99.90;;;;;;4997848;28;20029;-63
2024/01/22 06:45:37;;;;;;;3.00;0.90;;;-3.10;99.90;;;;;;4996496;28;20041;-64
2024/01/22 06:48:03;;;;;;;1.27;0.38;;;-2.70;99.90;;;;;;4996205;28;20140;-63
2024/01/22 06:50:29;;;;;;;0.00;0.00;;;-2.40;99.90;;;;;;4997866;28;20156;-64
2024/01/22 06:52:54;;;;;;;0.03;0.03;;;-2.00;99.90;;;;;;4996062;28;20483;-64
2024/01/22 06:55:22;;;;;;;0.00;0.00;;;-1.60;99.90;;;;;;4996520;28;20025;-63
2024/01/22 06:57:47;;;;;;;0.00;0.00;;;-1.00;99.90;;;;;;4994506;28;20177;-64
2024/01/22 07:00:15;;;;;;;0.00;0.00;;;-0.50;99.90;;;;;;4994123;28;20104;-63
2024/01/22 07:02:43;;;;;;;0.00;0.00;;;-0.10;99.90;;;;;;4990843;28;20030;-64
2024/01/22 07:05:12;;;;;;;0.00;0.00;;;0.10;99.90;;;;;;5023805;28;20033;-63
2024/01/22 07:07:39;;;;;;;0.00;0.00;;;0.30;99.90;;;;;;4995250;28;20026;-63
2024/01/22 07:10:08;;;;;;;0.00;0.00;;;0.50;99.90;;;;;;4999713;28;20137;-63
2024/01/22 07:12:35;;;;;;;0.00;0.00;;;0.80;99.90;;;;;;4997603;28;20117;-64
2024/01/22 07:15:01;;;;;;;0.00;0.00;;;1.00;99.90;;;;;;5001809;28;20033;-64
2024/01/22 07:17:28;;;;;;;0.00;0.00;;;1.60;99.90;;;;;;5022018;28;20038;-64
2024/01/22 07:19:54;;;;;;;0.00;0.00;;;2.10;99.90;;;;;;4999537;28;20021;-65
2024/01/22 07:22:20;;;;;;;0.00;0.00;;;2.60;99.90;;;;;;5001459;28;20087;-65
2024/01/22 07:24:45;;;;;;;0.00;0.00;;;2.90;99.90;;;;;;5001836;28;20462;-64
2024/01/22 07:27:11;;;;;;;0.00;0.00;;;3.10;99.90;;;;;;5000321;28;20033;-64
2024/01/22 07:29:37;;;;;;;0.10;0.10;;;3.80;99.90;;;;;;5000142;28;20113;-65
2024/01/22 07:32:02;;;;;;;0.00;0.00;;;4.10;99.90;;;;;;4997358;28;20030;-64
2024/01/22 07:34:29;;;;;;;0.10;0.10;;;4.30;99.90;;;;;;4998489;28;20029;-64
2024/01/22 07:36:55;;;;;;;0.00;0.00;;;3.90;99.90;;;;;;5002629;28;20054;-64
2024/01/22 07:39:20;;;;;;;0.00;0.00;;;3.80;99.90;;;;;;4997647;28;20129;-65
2024/01/22 07:41:46;;;;;;;0.00;0.00;;;4.00;99.90;;;;;;4998894;28;20046;-64
2024/01/22 07:44:12;;;;;;;0.10;0.10;;;4.60;99.60;;;;;;4995469;28;20326;-64
2024/01/22 07:46:38;;;;;;;0.10;0.10;;;5.30;97.90;;;;;;5000542;28;20018;-64
2024/01/22 07:49:04;;;;;;;0.05;0.05;;;5.40;97.20;;;;;;4994795;28;20714;-64
2024/01/22 07:51:30;;;;;;;0.00;0.00;;;5.30;96.90;;;;;;5000855;28;20054;-64
2024/01/22 07:53:56;;;;;;;0.00;0.00;;;5.90;95.50;;;;;;4995386;28;20026;-64
2024/01/22 07:56:22;;;;;;;0.00;0.00;;;5.30;95.10;;;;;;4997629;28;20030;-64
2024/01/22 07:58:48;;;;;;;1.90;0.75;;;4.50;96.10;;;;;;4997077;28;20025;-65
2024/01/22 08:01:14;;;;;;;0.00;0.00;;;3.30;97.90;;;;;;4999423;28;20018;-64
2024/01/22 08:03:40;;;;;;;0.00;0.00;;;3.30;99.30;;;;;;4999316;28;20018;-65
2024/01/22 08:06:05;;;;;;;0.00;0.00;;;3.30;99.20;;;;;;4997969;28;20693;-65
2024/01/22 08:08:31;;;;;;;0.63;0.30;;;3.70;98.60;;;;;;5023955;28;20018;-64
2024/01/22 08:10:57;;;;;;;0.00;0.00;;;3.80;98.40;;;;;;4998874;28;20018;-64
2024/01/22 08:13:23;;;;;;;0.00;0.00;;;3.40;98.90;;;;;;5002670;28;20014;-64
2024/01/22 08:15:49;;;;;;;0.00;0.00;;;2.90;99.80;;;;;;4996445;28;20101;-64
2024/01/22 08:18:15;;;;;;;0.03;0.03;;;2.70;99.90;;;;;;4998715;28;20033;-64
2024/01/22 08:20:41;;;;;;;0.00;0.00;;;2.70;99.90;;;;;;4999945;28;20568;-63
2024/01/22 08:23:07;;;;;;;0.98;0.90;;;2.40;99.90;;;;;;5000779;28;20437;-63
2024/01/22 08:25:33;;;;;;;0.05;0.05;;;1.90;99.90;;;;;;5004227;28;20053;-64
2024/01/22 08:28:00;;;;;;;0.00;0.00;;;1.80;99.90;;;;;;4999577;28;20026;-64
2024/01/22 08:30:26;;;;;;;0.03;0.03;;;2.10;99.90;;;;;;4997690;28;20104;-64
2024/01/22 08:32:52;;;;;;;0.00;0.00;;;3.10;99.90;;;;;;4999914;28;20061;-64
2024/01/22 08:35:19;;;;;;;0.00;0.00;;;4.20;99.00;;;;;;5000681;28;20018;-64
2024/01/22 08:37:50;;;;;;;;;;;5.00;96.70;;;;;;4999519;28;20265;-64
2024/01/22 08:40:17;;;;;;;0.00;0.00;;;5.70;95.20;;;;;;4999066;28;20072;-65
2024/01/22 08:42:55;;;;;;;0.00;0.00;;;6.50;94.00;;;;;;4998820;28;20401;-64
2024/01/22 08:45:21;;;;;;;0.00;0.00;;;6.70;92.80;;;;;;4997305;28;20770;-65
2024/01/22 08:47:48;;;;;;;0.00;0.00;;;6.40;92.90;;;;;;4999104;28;20022;-65
2024/01/22 08:50:19;;;;;;;0.00;0.00;;;6.10;92.30;;;;;;4999598;28;20032;-64
2024/01/22 08:52:49;;;;;;;0.00;0.00;;;6.00;92.40;;;;;;4998385;28;20025;-64
2024/01/22 08:55:15;;;;;;;0.00;0.00;;;6.50;91.60;;;;;;4994868;28;20049;-64
2024/01/22 08:57:42;;;;;;;0.00;0.00;;;6.60;91.90;;;;;;4996844;28;20026;-64
2024/01/22 09:00:12;;;;;;;0.00;0.00;;;6.60;90.90;;;;;;5000421;28;20388;-64
2024/01/22 09:02:41;;;;;;;0.32;0.32;;;6.70;90.90;;;;;;4999140;28;20018;-64
2024/01/22 09:05:08;;;;;;;0.05;0.05;;;6.90;90.50;;;;;;4998607;28;20018;-64
2024/01/22 09:07:34;;;;;;;0.00;0.00;;;7.70;89.50;;;;;;4995971;28;20018;-64
2024/01/22 09:10:02;;;;;;;;;;;7.40;87.20;;;;;;5002725;28;20034;-64
2024/01/22 09:12:27;;;;;;;0.52;0.52;;;6.90;88.90;;;;;;4995946;28;19959;-64
2024/01/22 09:14:53;;;;;;;0.00;0.00;;;6.30;90.20;;;;;;4998389;28;20025;-64
2024/01/22 09:17:19;;;;;;;0.00;0.00;;;5.40;91.00;;;;;;4995759;28;20853;-64
2024/01/22 09:19:44;;;;;;;0.00;0.00;;;5.20;91.90;;;;;;4999331;28;20025;-64
2024/01/22 09:22:10;;;;;;;0.00;0.00;;;5.00;92.40;;;;;;5002992;28;20075;-64
2024/01/22 09:24:35;;;;;;;0.23;0.23;;;5.20;92.10;;;;;;5000527;28;20030;-64
2024/01/22 09:27:01;;;;;;;0.10;0.10;;;5.10;92.70;;;;;;4999420;28;20030;-64
2024/01/22 09:29:27;;;;;;;0.00;0.00;;;4.80;92.60;;;;;;4999887;28;20453;-64
2024/01/22 09:31:53;;;;;;;0.00;0.00;;;5.10;92.60;;;;;;4997019;28;20033;-63
2024/01/22 09:34:18;;;;;;;0.00;0.00;;;5.60;92.40;;;;;;4999918;28;20033;-64
2024/01/22 09:36:44;;;;;;;0.00;0.00;;;6.00;91.70;;;;;;4997921;28;20490;-64
2024/01/22 09:39:10;;;;;;;0.00;0.00;;;5.30;91.80;;;;;;4997701;28;20026;-63
2024/01/22 09:41:36;;;;;;;0.00;0.00;;;5.00;92.60;;;;;;5000205;28;20029;-64
2024/01/22 09:44:02;;;;;;;0.00;0.00;;;5.00;93.10;;;;;;4998856;28;20037;-64
2024/01/22 09:46:29;;;;;;;0.00;0.00;;;5.80;92.50;;;;;;4999114;28;20026;-64
2024/01/22 09:48:54;;;;;;;0.00;0.00;;;6.10;91.60;;;;;;5001381;28;20045;-64
2024/01/22 09:51:20;;;;;;;0.10;0.10;;;6.90;91.30;;;;;;4994895;28;20065;-65
2024/01/22 09:53:47;;;;;;;0.00;0.00;;;8.10;90.00;;;;;;4999499;28;20018;-65
2024/01/22 09:56:20;;;;;;;0.05;0.05;;;8.10;88.10;;;;;;5002467;28;20053;-64
2024/01/22 09:58:46;;;;;;;2.08;0.57;;;7.40;89.50;;;;;;5000319;28;20097;-64
2024/01/22 10:01:14;;;;;;;0.00;0.00;;;7.50;89.20;;;;;;4998971;28;20049;-65
2024/01/22 10:03:40;;;;;;;0.00;0.00;;;7.10;89.00;;;;;;4998588;28;20021;-63
2024/01/22 10:06:06;;;;;;;0.00;0.00;;;6.40;90.30;;;;;;4997885;28;20497;-65
2024/01/22 10:08:32;;;;;;;0.00;0.00;;;5.70;90.90;;;;;;4997709;28;20025;-64
2024/01/22 10:10:57;;;;;;;0.00;0.00;;;5.40;91.80;;;;;;4998169;28;20025;-64
2024/01/22 10:13:23;;;;;;;0.00;0.00;;;4.90;92.40;;;;;;4997601;28;20022;-61
2024/01/22 10:15:49;;;;;;;0.00;0.00;;;4.70;93.10;;;;;;5000737;28;20030;-62
2024/01/22 10:18:17;;;;;;;0.00;0.00;;;4.40;93.30;;;;;;4997344;28;20018;-62
2024/01/22 10:20:44;;;;;;;0.00;0.00;;;4.40;93.60;;;;;;5002141;28;20676;-61
2024/01/22 10:23:14;;;;;;;0.00;0.00;;;4.70;93.70;;;;;;4994582;28;20678;-62
2024/01/22 10:25:40;;;;;;;0.45;0.45;;;5.20;93.00;;;;;;4998403;28;20516;-62
2024/01/22 10:28:08;;;;;;;0.00;0.00;;;5.30;93.00;;;;;;4999667;28;20513;-61
2024/01/22 10:30:35;;;;;;;0.00;0.00;;;5.10;93.00;;;;;;5001822;28;20487;-61
2024/01/22 10:33:18;;;;;;;0.00;0.00;;;5.40;93.20;;;;;;4996696;28;20033;-62
2024/01/22 10:35:46;;;;;;;0.00;0.00;;;5.20;92.70;;;;;;4995394;28;20413;-61
2024/01/22 10:38:18;;;;;;;0.00;0.00;;;4.90;93.20;;;;;;4996682;28;20446;-61
2024/01/22 10:40:45;;;;;;;0.00;0.00;;;5.30;93.00;;;;;;4997079;28;20401;-62
2024/01/22 10:43:26;;;;;;;0.00;0.00;;;5.10;92.90;;;;;;4993835;28;20691;-61
2024/01/22 10:45:55;;;;;;;0.10;0.10;;;6.50;92.40;;;;;;5010866;28;20029;-61
2024/01/22 10:48:28;;;;;;;0.30;0.30;;;7.30;91.10;;;;;;4999135;28;20144;-61
2024/01/22 10:50:54;;;;;;;0.00;0.00;;;7.10;90.60;;;;;;4995869;28;20485;-62
2024/01/22 10:53:20;;;;;;;0.00;0.00;;;8.00;90.00;;;;;;4996509;28;20022;-62
2024/01/22 10:56:12;;;;;;;0.98;0.65;;;7.70;88.40;;;;;;4998435;28;20145;-62
2024/01/22 10:58:45;;;;;;;0.00;0.00;;;6.90;90.20;;;;;;4997303;28;20401;-63
2024/01/22 11:01:19;;;;;;;0.00;0.00;;;7.80;89.40;;;;;;5006450;28;20461;-62
2024/01/22 11:03:53;;;;;;;0.00;0.00;;;8.50;88.60;;;;;;5009005;28;20072;-63
2024/01/22 11:06:29;;;;;;;0.00;0.00;;;9.50;85.90;;;;;;4997677;28;20771;-62
2024/01/22 11:08:56;;;;;;;0.00;0.00;;;9.40;82.70;;;;;;4995770;28;20029;-61
2024/01/22 11:11:26;;;;;;;0.00;0.00;;;9.80;80.20;;;;;;5000826;28;20022;-61
2024/01/22 11:13:58;;;;;;;0.00;0.00;;;10.30;79.80;;;;;;4997079;28;20026;-63
2024/01/22 11:16:24;;;;;;;0.00;0.00;;;9.60;80.30;;;;;;5000849;28;20034;-63
2024/01/22 11:19:01;;;;;;;0.00;0.00;;;8.70;82.50;;;;;;5028856;28;20064;-61
2024/01/22 11:21:38;;;;;;;0.00;0.00;;;8.10;83.40;;;;;;4998549;28;20029;-64
2024/01/22 11:24:13;;;;;;;0.00;0.00;;;7.70;84.90;;;;;;4996773;28;20436;-65
2024/01/22 11:26:51;;;;;;;0.00;0.00;;;6.40;86.80;;;;;;4997656;28;20659;-65
2024/01/22 11:29:27;;;;;;;0.00;0.00;;;6.00;89.50;;;;;;4994598;28;20022;-64
2024/01/22 11:31:54;;;;;;;0.00;0.00;;;6.10;89.10;;;;;;4998276;28;20505;-64
2024/01/22 11:34:38;;;;;;;0.00;0.00;;;5.20;90.50;;;;;;5000998;28;20018;-65
2024/01/22 11:37:05;;;;;;;0.13;0.13;;;5.00;91.50;;;;;;4997096;28;20037;-64
2024/01/22 11:39:39;;;;;;;0.00;0.00;;;5.10;91.70;;;;;;5000866;28;20037;-64
2024/01/22 11:42:17;;;;;;;0.00;0.00;;;5.20;91.40;;;;;;4999864;28;20026;-64
2024/01/22 11:44:50;;;;;;;0.00;0.00;;;5.10;91.50;;;;;;4987261;28;20025;-64
2024/01/22 11:47:17;;;;;;;0.05;0.05;;;4.90;91.80;;;;;;4995525;28;20026;-64
2024/01/22 11:49:44;;;;;;;0.10;0.10;;;4.80;92.40;;;;;;5000407;28;20097;-64
2024/01/22 11:52:22;;;;;;;0.00;0.00;;;4.50;92.60;;;;;;5003082;28;20485;-65
2024/01/22 11:54:59;;;;;;;0.17;0.17;;;4.30;93.30;;;;;;4999268;28;20450;-64
2024/01/22 11:57:26;;;;;;;0.10;0.10;;;4.30;93.50;;;;;;5000788;28;20097;-65
2024/01/22 12:00:05;;;;;;;0.00;0.00;;;4.30;93.60;;;;;;5000092;28;20018;-65
2024/01/22 12:02:32;;;;;;;0.00;0.00;;;4.40;93.90;;;;;;4999871;28;20032;-64
2024/01/22 12:05:12;;;;;;;0.00;0.00;;;4.30;94.10;;;;;;5001266;28;20037;-65
2024/01/22 12:07:49;;;;;;;0.00;0.00;;;4.00;94.30;;;;;;5000247;28;20022;-64
2024/01/22 12:10:19;;;;;;;0.00;0.00;;;4.10;94.60;;;;;;5001862;28;20457;-64
2024/01/22 12:12:55;;;;;;;0.00;0.00;;;4.10;95.00;;;;;;5003531;28;20022;-64
2024/01/22 12:15:23;;;;;;;0.00;0.00;;;4.20;94.70;;;;;;5003527;28;20026;-64
2024/01/22 12:17:50;;;;;;;0.00;0.00;;;4.30;94.50;;;;;;5025384;28;20018;-64
2024/01/22 12:20:17;;;;;;;0.00;0.00;;;4.20;94.50;;;;;;4999414;28;20076;-65
2024/01/22 12:22:43;;;;;;;0.00;0.00;;;4.10;94.80;;;;;;5000248;28;20509;-64
2024/01/22 12:25:11;;;;;;;0.00;0.00;;;4.00;94.90;;;;;;5002383;28;20022;-64
2024/01/22 12:27:37;;;;;;;0.00;0.00;;;4.00;95.00;;;;;;5002386;28;20065;-64
2024/01/22 12:30:08;;;;;;;0.00;0.00;;;3.80;95.30;;;;;;4999383;28;20037;-65
2024/01/22 12:32:35;;;;;;;0.00;0.00;;;3.90;95.40;;;;;;4999252;28;20812;-61
2024/01/22 12:35:01;;;;;;;0.00;0.00;;;3.80;95.40;;;;;;5000281;28;20041;-61
2024/01/22 12:37:28;;;;;;;0.10;0.10;;;3.70;95.40;;;;;;5001051;28;20534;-63
2024/01/22 12:40:18;;;;;;;0.00;0.00;;;3.70;95.50;;;;;;4999362;28;20415;-63
2024/01/22 12:42:51;;;;;;;0.00;0.00;;;3.90;95.50;;;;;;4999964;28;20026;-61
2024/01/22 12:45:23;;;;;;;0.10;0.10;;;4.00;94.90;;;;;;4997967;28;20461;-61
2024/01/22 12:47:49;;;;;;;0.00;0.00;;;4.00;94.90;;;;;;4999342;28;20079;-60
2024/01/22 12:50:17;;;;;;;0.00;0.00;;;4.00;94.80;;;;;;5001618;28;20550;-63
2024/01/22 12:52:44;;;;;;;0.00;0.00;;;3.90;94.90;;;;;;4992294;28;20053;-62